Pagrindinis puslapis
METAR-TAF:

METAR-TAF

Oro uostai :

Amanas, Jordanija

platuma: 31-59N, ilguma: 035-59E, Aukštis: 767 m

Dabartinis oras

Ataskaita buvo paskelbta 1 valandą ir 4 minutes, ne 15:00 UTC
Vėjas 4 kt iš Šiaurės/Šiaurės Vakarų
Temperatūra 26°C
Drėgmė 34%
Slėgis 1017 hPa
Matomumas: 8000 m

METAR: OJAM 251500Z 34004KT 8000 NSC 26/09 Q1017 NOSIG

Laikas: 19:04 (16:04 UTC)

Prognozė

Ataskaita buvo paskelbta 6 valandos ir 0 minutes, ne 10:04 UTC
Prognozė galioja nuo 25 metu 12 UTC su 26 metu 18 UTC
Vėjas 6 kt iš Šiaurės/Šiaurės Rytų
Matomumas: 6000 m
Mažai debesys ne aukštis 3000 ft
Tikimybė 30%
nuo 26 metu 02 UTC su 26 metu 06 UTC
Vėjas 2 kt iš Rytų/Šiaurės Rytų
Matomumas: 4000 m
dūmai

TAF: OJAM 251004Z 2512/2618 02006KT 6000 FEW030 PROB30 2602/2606 06002KT 4000 FU

Orai ataskaitas ir orų prognozės (METAR, TAF).

turimą stotys yra geltonos ir raudonos taškus žemėlapyje.

Perkelti pele per norėdami pamatyti stoties vardą.

Tada spustelėkite, norėdami matyti oro stebėjimo ir prognozės.

Norėdami pakeisti žemėlapį: spustelėkite ant žalios mygtukų su juodo kryžiaus žemyn,; žalią mygtuką su brūkšneliu, jei norite nutolinti; arba žalių rodyklių gretimoms žemėlapius.


METAR-TAF: